Terminal Aerodrome Forecast
Issued by NWS

Home | Current Version | Previous Version | Graphics & Text | Print | Product List | Glossary On
Versions: 1 2 3 4 5 6 7 8 9 10 11 12 13 14 15 16 17 18 19 20
000
FTUS43 KBIS 271700
TAFDIK
TAF
KDIK 271732Z 2718/2818 03021G30KT P6SM FEW250
     FM272000 05015KT P6SM SCT250
     FM280500 03015KT P6SM BKN150
     FM281200 03015KT P6SM BKN060
     FM281600 05016KT 6SM -SHRA OVC030=

USA.gov is the U.S. government's official web portal to all federal, state and local government web resources and services.